Funds performance table by strategy

help icon
fund name 1 mth 3 mthsort icon 12 mth ytd Inception Net assets Return Date
JPMorgan US Research Equity Plus Select 2% 5% 26% 7% 14% - 2014-06-30
AB US Thematic Research S1 JPY H 2% 5% 30% 6% 22% 4295M 2014-06-30
Schroder ISF Middle East USD I -4% 5% 30% 19% 6% 299M 2014-06-30
ZKB-CIF World ex CH Index N 1% 5% 16% 5% 0% - 2014-06-30
UBS AST 2 Glb Eq ex CH Passive I-A1 1% 5% 16% 6% 10% 235M 2014-06-30
Anima America F 1% 5% 17% 6% 17% 371M 2014-06-30
AXA Framlington Japan Z GBP Acc 4% 5% 9% 4% 3% 45M 2014-06-30
APS ACi Equity FoF B 1% 5% 24% 8% 15% 268M 2014-06-30
Vunani IP Accelerated Growth B 2% 5% 0% 2% 2% 5M 2014-06-30
Templeton China World R6 3% 5% 9% 0% 1% - 2014-06-30
Parvest Equity USA Mid Cap P H EUR 4% 5% 0% 10% 14% 1093M 2014-06-30
UBS (Lux) KSS 2 Glbl Quantitative $ I-X 2% 5% 0% 7% 12% 1282M 2014-06-30
Aviva Investors Em Mkts Bd Ih CHF Acc 0% 5% 9% 8% 0% 1543M 2014-06-30
SSgA World Equity Index D2 1% 5% 16% 5% 15% 663M 2014-06-30
SIP World Equity Index M2 1% 5% 0% 5% 10% 413M 2014-06-30
CSIF World ex CH Index - Pension Fd F 1% 5% 16% 5% 15% 4243M 2014-06-30
Perkins Global Value Z USD 1% 5% 20% 9% 21% 142M 2014-06-30
Wellington Oppoc Emerg Mkt Dbt € S Acc H 0% 5% 11% 9% 10% 1539M 2014-06-30
Deka STOXX® Europe Strong Value 20 0% 5% 34% 13% 5% 17M 2014-06-30
LOYS Global MH B 0% 5% 19% 7% 5% 23M 2014-06-30
Haidar Jupiter LLC 0% 5% 26% 5% 16% 222M 2014-05-31
Biotech Growth Ord 6% 5% 37% 10% 10% - 2014-06-30
Lightwater Conservative Long Short Fd 1% 5% 56% 9% 5% - 2014-04-30
ZI Islamic Global Equity Index 1% 5% 21% 6% 5% 5M 2014-06-30
JPM Strategic Bond I Gross Inc 1% 5% 4% 3% 4% 374M 2012-02-29
UBS (CH) IF Eqs Global Passive IX 1% 5% 16% 5% 4% 1247M 2014-06-30
UBS (CH) IF2 Equities Global Pass IA1 1% 5% 16% 5% 1% 3390M 2014-06-30
UBS (CH) IF Eqs Global (ex CH) Quant IA1 1% 5% 15% 6% 1% 178M 2014-06-30
Nuveen Tradewinds Value Opportunities I 1% 5% 22% 6% 11% - 2014-06-30
JPM US Select Eq Plus X (acc)-USD 3% 5% 28% 8% 0% 3189M 2014-06-30

All our data is licensed from Morningstar UK Ltd. Important legal information